Montcalm, West Virginia
Current Conditions -  °F | °C
As of 1:52 AM on Tuesday 21 Oct 2014 (Local Time) from KBLF Reporting Station
Broken Clouds Broken Clouds  
Wind Chill: 52°   Ceiling: 2700
Heat Index: 52°   Visibility: 10mi
Dew Point: 43°   Wind: 6mph
Humidity: 71%   Direction: 250°WSW
Pressure: 29.97"   Gusts: NA
Location:  37.35°N, 81.25°W
Report Text: KBLF 210552Z AUTO 25005KT 10SM BKN027 11/06 A2997 RMK AO2 SLP129 60000 T01110061 10128 20111 56009
Loading
Personal Weather Stations






























Interactive Weather Map
Tropical Storm Tracking
New forecast layout! Learn more

10-Day Weather Forecast

Advertisements
Track Severe Weather on mobile